sensor_id;sensor_type;location;lat;lon;timestamp;pressure;altitude;pressure_sealevel;temperature;humidity
47366;BME280;33105;47.964;7.982;2023-07-20T00:02:19;96641.22;;;20.15;53.01
47366;BME280;33105;47.964;7.982;2023-07-20T00:05:20;96647.72;;;20.10;54.15
47366;BME280;33105;47.964;7.982;2023-07-20T00:08:25;96646.13;;;20.00;53.44
47366;BME280;33105;47.964;7.982;2023-07-20T00:11:27;96640.41;;;19.97;53.95
47366;BME280;33105;47.964;7.982;2023-07-20T00:14:28;96647.88;;;19.88;55.07
47366;BME280;33105;47.964;7.982;2023-07-20T00:17:30;96651.47;;;20.05;53.51
47366;BME280;33105;47.964;7.982;2023-07-20T00:20:31;96645.47;;;19.95;55.17
47366;BME280;33105;47.964;7.982;2023-07-20T00:23:32;96636.94;;;19.83;55.56
47366;BME280;33105;47.964;7.982;2023-07-20T00:26:34;96654.22;;;19.80;55.44
47366;BME280;33105;47.964;7.982;2023-07-20T00:29:35;96650.81;;;19.74;56.21
47366;BME280;33105;47.964;7.982;2023-07-20T00:32:37;96651.28;;;19.67;56.35
47366;BME280;33105;47.964;7.982;2023-07-20T00:35:39;96649.66;;;19.66;56.37
47366;BME280;33105;47.964;7.982;2023-07-20T00:38:40;96639.56;;;19.70;55.87
47366;BME280;33105;47.964;7.982;2023-07-20T00:41:42;96643.81;;;19.77;55.82
47366;BME280;33105;47.964;7.982;2023-07-20T00:44:43;96644.13;;;19.75;55.88
47366;BME280;33105;47.964;7.982;2023-07-20T00:47:44;96648.34;;;19.64;57.36
47366;BME280;33105;47.964;7.982;2023-07-20T00:50:47;96650.44;;;19.58;57.65
47366;BME280;33105;47.964;7.982;2023-07-20T00:53:49;96650.28;;;19.63;56.17
47366;BME280;33105;47.964;7.982;2023-07-20T00:56:52;96646.63;;;19.46;56.51
47366;BME280;33105;47.964;7.982;2023-07-20T00:59:54;96645.00;;;19.45;58.86
47366;BME280;33105;47.964;7.982;2023-07-20T01:02:55;96644.75;;;19.55;56.32
47366;BME280;33105;47.964;7.982;2023-07-20T01:12:27;96639.59;;;19.40;59.07
47366;BME280;33105;47.964;7.982;2023-07-20T01:15:31;96624.44;;;19.37;58.97
47366;BME280;33105;47.964;7.982;2023-07-20T01:18:34;96629.97;;;19.28;58.82
47366;BME280;33105;47.964;7.982;2023-07-20T01:25:50;96636.47;;;19.32;60.19
47366;BME280;33105;47.964;7.982;2023-07-20T01:32:24;96624.53;;;19.15;60.01
47366;BME280;33105;47.964;7.982;2023-07-20T01:35:29;96631.66;;;19.07;60.91
47366;BME280;33105;47.964;7.982;2023-07-20T01:38:33;96630.69;;;19.03;60.31
47366;BME280;33105;47.964;7.982;2023-07-20T01:41:34;96627.25;;;19.06;62.05
47366;BME280;33105;47.964;7.982;2023-07-20T01:44:37;96631.63;;;18.98;60.47
47366;BME280;33105;47.964;7.982;2023-07-20T01:47:38;96627.09;;;19.02;62.81
47366;BME280;33105;47.964;7.982;2023-07-20T01:50:40;96621.88;;;19.01;64.23
47366;BME280;33105;47.964;7.982;2023-07-20T01:53:41;96630.19;;;19.01;63.00
47366;BME280;33105;47.964;7.982;2023-07-20T01:56:42;96619.00;;;19.15;61.54
47366;BME280;33105;47.964;7.982;2023-07-20T01:59:43;96623.72;;;19.14;60.53
47366;BME280;33105;47.964;7.982;2023-07-20T02:02:45;96613.44;;;19.15;59.82
47366;BME280;33105;47.964;7.982;2023-07-20T02:05:46;96620.66;;;18.85;61.27
47366;BME280;33105;47.964;7.982;2023-07-20T02:08:47;96624.88;;;18.82;61.89
47366;BME280;33105;47.964;7.982;2023-07-20T02:11:48;96624.66;;;18.70;63.02
47366;BME280;33105;47.964;7.982;2023-07-20T02:14:50;96621.00;;;18.61;63.52
47366;BME280;33105;47.964;7.982;2023-07-20T02:17:53;96612.72;;;18.61;62.70
47366;BME280;33105;47.964;7.982;2023-07-20T02:20:54;96609.72;;;18.57;61.43
47366;BME280;33105;47.964;7.982;2023-07-20T02:23:56;96605.66;;;18.55;61.94
47366;BME280;33105;47.964;7.982;2023-07-20T02:26:57;96617.19;;;18.48;64.56
47366;BME280;33105;47.964;7.982;2023-07-20T02:29:59;96611.81;;;18.52;63.06
47366;BME280;33105;47.964;7.982;2023-07-20T02:33:00;96611.63;;;18.48;62.38
47366;BME280;33105;47.964;7.982;2023-07-20T02:36:01;96612.06;;;18.42;64.10
47366;BME280;33105;47.964;7.982;2023-07-20T02:39:03;96615.28;;;18.35;64.04
47366;BME280;33105;47.964;7.982;2023-07-20T02:42:05;96613.81;;;18.29;65.55
47366;BME280;33105;47.964;7.982;2023-07-20T02:45:07;96623.03;;;18.24;65.38
47366;BME280;33105;47.964;7.982;2023-07-20T02:48:11;96621.22;;;18.20;64.32
47366;BME280;33105;47.964;7.982;2023-07-20T02:51:15;96620.81;;;18.13;65.04
47366;BME280;33105;47.964;7.982;2023-07-20T02:54:20;96628.41;;;18.07;65.10
47366;BME280;33105;47.964;7.982;2023-07-20T02:57:22;96619.75;;;18.00;64.46
47366;BME280;33105;47.964;7.982;2023-07-20T03:00:24;96617.00;;;18.00;64.82
47366;BME280;33105;47.964;7.982;2023-07-20T03:03:26;96618.44;;;17.97;65.07
47366;BME280;33105;47.964;7.982;2023-07-20T03:06:34;96615.09;;;18.09;62.27
47366;BME280;33105;47.964;7.982;2023-07-20T03:09:37;96619.19;;;18.12;62.30
47366;BME280;33105;47.964;7.982;2023-07-20T03:12:38;96621.19;;;17.97;64.05
47366;BME280;33105;47.964;7.982;2023-07-20T03:15:43;96619.25;;;17.98;63.17
47366;BME280;33105;47.964;7.982;2023-07-20T03:18:50;96618.13;;;17.99;63.53
47366;BME280;33105;47.964;7.982;2023-07-20T03:21:59;96616.59;;;17.93;64.83
47366;BME280;33105;47.964;7.982;2023-07-20T03:25:03;96613.31;;;17.91;63.71
47366;BME280;33105;47.964;7.982;2023-07-20T03:28:08;96617.34;;;17.85;63.85
47366;BME280;33105;47.964;7.982;2023-07-20T03:31:43;96626.03;;;17.92;62.76
47366;BME280;33105;47.964;7.982;2023-07-20T03:34:58;96618.47;;;17.84;63.94
47366;BME280;33105;47.964;7.982;2023-07-20T03:38:01;96630.78;;;17.78;64.21
47366;BME280;33105;47.964;7.982;2023-07-20T03:41:02;96629.66;;;17.79;65.55
47366;BME280;33105;47.964;7.982;2023-07-20T03:44:05;96632.31;;;17.70;64.16
47366;BME280;33105;47.964;7.982;2023-07-20T03:47:19;96629.97;;;17.77;64.36
47366;BME280;33105;47.964;7.982;2023-07-20T03:50:31;96630.59;;;17.74;64.84
47366;BME280;33105;47.964;7.982;2023-07-20T03:53:36;96633.84;;;17.62;64.30
47366;BME280;33105;47.964;7.982;2023-07-20T03:56:38;96628.75;;;17.70;64.68
47366;BME280;33105;47.964;7.982;2023-07-20T03:59:45;96630.28;;;17.76;64.58
47366;BME280;33105;47.964;7.982;2023-07-20T04:02:57;96629.06;;;17.68;64.88
47366;BME280;33105;47.964;7.982;2023-07-20T04:06:05;96634.88;;;17.66;65.65
47366;BME280;33105;47.964;7.982;2023-07-20T04:09:06;96635.59;;;17.72;64.96
47366;BME280;33105;47.964;7.982;2023-07-20T04:12:17;96632.53;;;17.74;64.66
47366;BME280;33105;47.964;7.982;2023-07-20T04:15:36;96639.50;;;17.71;64.24
47366;BME280;33105;47.964;7.982;2023-07-20T04:18:38;96644.59;;;17.78;64.20
47366;BME280;33105;47.964;7.982;2023-07-20T04:21:43;96642.75;;;17.73;63.83
47366;BME280;33105;47.964;7.982;2023-07-20T04:24:48;96644.69;;;17.59;66.12
47366;BME280;33105;47.964;7.982;2023-07-20T04:27:50;96645.94;;;17.53;66.39
47366;BME280;33105;47.964;7.982;2023-07-20T04:30:53;96643.47;;;17.79;63.43
47366;BME280;33105;47.964;7.982;2023-07-20T04:33:54;96639.50;;;17.71;65.86
47366;BME280;33105;47.964;7.982;2023-07-20T04:36:56;96643.88;;;17.72;64.19
47366;BME280;33105;47.964;7.982;2023-07-20T04:39:59;96642.88;;;17.68;65.42
47366;BME280;33105;47.964;7.982;2023-07-20T04:43:01;96640.41;;;17.66;66.24
47366;BME280;33105;47.964;7.982;2023-07-20T04:46:22;96635.50;;;17.77;64.72
47366;BME280;33105;47.964;7.982;2023-07-20T04:49:24;96648.19;;;17.78;63.66
47366;BME280;33105;47.964;7.982;2023-07-20T04:52:25;96633.63;;;17.59;65.70
47366;BME280;33105;47.964;7.982;2023-07-20T04:55:27;96641.84;;;17.50;66.33
47366;BME280;33105;47.964;7.982;2023-07-20T04:58:48;96641.25;;;17.53;66.23
47366;BME280;33105;47.964;7.982;2023-07-20T05:05:17;96648.69;;;17.66;65.46
47366;BME280;33105;47.964;7.982;2023-07-20T05:08:27;96644.66;;;17.86;62.61
47366;BME280;33105;47.964;7.982;2023-07-20T05:15:00;96638.22;;;17.63;66.49
47366;BME280;33105;47.964;7.982;2023-07-20T05:18:02;96645.81;;;17.58;66.99
47366;BME280;33105;47.964;7.982;2023-07-20T05:21:28;96651.03;;;17.59;69.28
47366;BME280;33105;47.964;7.982;2023-07-20T05:24:35;96647.06;;;17.65;69.09
47366;BME280;33105;47.964;7.982;2023-07-20T05:27:59;96641.00;;;17.63;69.08
47366;BME280;33105;47.964;7.982;2023-07-20T05:31:03;96650.03;;;17.69;69.56
47366;BME280;33105;47.964;7.982;2023-07-20T05:34:04;96647.88;;;17.80;69.87
47366;BME280;33105;47.964;7.982;2023-07-20T05:37:11;96645.59;;;17.82;69.48
47366;BME280;33105;47.964;7.982;2023-07-20T05:40:21;96647.72;;;17.85;69.74
47366;BME280;33105;47.964;7.982;2023-07-20T05:43:23;96653.03;;;17.95;69.04
47366;BME280;33105;47.964;7.982;2023-07-20T05:46:26;96652.03;;;18.13;67.47
47366;BME280;33105;47.964;7.982;2023-07-20T05:49:29;96641.41;;;18.07;70.19
47366;BME280;33105;47.964;7.982;2023-07-20T05:52:40;96652.72;;;17.96;68.62
47366;BME280;33105;47.964;7.982;2023-07-20T05:55:41;96662.75;;;18.06;70.74
47366;BME280;33105;47.964;7.982;2023-07-20T05:58:42;96663.50;;;18.20;70.42
47366;BME280;33105;47.964;7.982;2023-07-20T06:01:43;96660.13;;;18.23;68.07
47366;BME280;33105;47.964;7.982;2023-07-20T06:04:45;96664.75;;;18.14;67.49
47366;BME280;33105;47.964;7.982;2023-07-20T06:07:47;96661.09;;;18.05;69.51
47366;BME280;33105;47.964;7.982;2023-07-20T06:10:50;96656.19;;;18.02;68.43
47366;BME280;33105;47.964;7.982;2023-07-20T06:13:52;96659.81;;;18.25;67.99
47366;BME280;33105;47.964;7.982;2023-07-20T06:16:54;96664.81;;;18.23;68.92
47366;BME280;33105;47.964;7.982;2023-07-20T06:19:56;96663.22;;;18.08;67.80
47366;BME280;33105;47.964;7.982;2023-07-20T06:22:58;96657.06;;;18.11;68.61
47366;BME280;33105;47.964;7.982;2023-07-20T06:25:59;96659.47;;;18.04;67.57
47366;BME280;33105;47.964;7.982;2023-07-20T06:29:00;96658.47;;;18.22;68.74
47366;BME280;33105;47.964;7.982;2023-07-20T06:32:01;96652.75;;;18.41;69.50
47366;BME280;33105;47.964;7.982;2023-07-20T06:35:03;96648.81;;;18.78;69.38
47366;BME280;33105;47.964;7.982;2023-07-20T06:38:04;96652.50;;;18.74;66.72
47366;BME280;33105;47.964;7.982;2023-07-20T06:41:05;96645.13;;;18.91;65.48
47366;BME280;33105;47.964;7.982;2023-07-20T06:44:06;96639.91;;;19.29;63.96
47366;BME280;33105;47.964;7.982;2023-07-20T06:47:08;96645.88;;;19.62;62.50
47366;BME280;33105;47.964;7.982;2023-07-20T06:50:10;96641.53;;;19.87;63.51
47366;BME280;33105;47.964;7.982;2023-07-20T06:53:11;96641.72;;;20.25;57.98
47366;BME280;33105;47.964;7.982;2023-07-20T06:56:13;96635.16;;;19.69;55.53
47366;BME280;33105;47.964;7.982;2023-07-20T06:59:14;96642.41;;;19.48;60.73
47366;BME280;33105;47.964;7.982;2023-07-20T07:02:15;96633.56;;;19.37;61.94
47366;BME280;33105;47.964;7.982;2023-07-20T07:05:17;96638.13;;;20.16;61.40
47366;BME280;33105;47.964;7.982;2023-07-20T07:08:19;96642.97;;;19.85;60.29
47366;BME280;33105;47.964;7.982;2023-07-20T07:11:21;96635.31;;;19.73;59.81
47366;BME280;33105;47.964;7.982;2023-07-20T07:14:22;96638.44;;;19.89;60.20
47366;BME280;33105;47.964;7.982;2023-07-20T07:17:24;96629.63;;;20.30;56.38
47366;BME280;33105;47.964;7.982;2023-07-20T07:20:25;96635.84;;;20.27;59.39
47366;BME280;33105;47.964;7.982;2023-07-20T07:23:27;96638.75;;;19.79;55.61
47366;BME280;33105;47.964;7.982;2023-07-20T07:26:28;96639.06;;;19.86;55.73
47366;BME280;33105;47.964;7.982;2023-07-20T07:29:29;96643.66;;;19.33;56.62
47366;BME280;33105;47.964;7.982;2023-07-20T07:32:31;96646.59;;;19.37;57.46
47366;BME280;33105;47.964;7.982;2023-07-20T07:35:36;96640.50;;;19.18;57.14
47366;BME280;33105;47.964;7.982;2023-07-20T07:38:37;96642.66;;;19.21;58.46
47366;BME280;33105;47.964;7.982;2023-07-20T07:41:39;96645.53;;;19.55;58.82
47366;BME280;33105;47.964;7.982;2023-07-20T07:44:40;96643.47;;;19.87;55.20
47366;BME280;33105;47.964;7.982;2023-07-20T07:47:42;96639.75;;;20.00;57.11
47366;BME280;33105;47.964;7.982;2023-07-20T07:50:43;96643.66;;;20.33;56.82
47366;BME280;33105;47.964;7.982;2023-07-20T07:53:46;96635.03;;;20.52;54.65
47366;BME280;33105;47.964;7.982;2023-07-20T07:56:47;96647.91;;;20.65;58.97
47366;BME280;33105;47.964;7.982;2023-07-20T07:59:48;96635.66;;;20.58;54.94
47366;BME280;33105;47.964;7.982;2023-07-20T08:02:51;96640.91;;;20.16;54.71
47366;BME280;33105;47.964;7.982;2023-07-20T08:05:56;96637.16;;;20.03;55.49
47366;BME280;33105;47.964;7.982;2023-07-20T08:08:57;96631.34;;;20.86;56.28
47366;BME280;33105;47.964;7.982;2023-07-20T08:11:58;96634.53;;;20.24;50.00
47366;BME280;33105;47.964;7.982;2023-07-20T08:15:00;96631.72;;;20.76;52.62
47366;BME280;33105;47.964;7.982;2023-07-20T08:18:01;96629.19;;;21.00;51.76
47366;BME280;33105;47.964;7.982;2023-07-20T08:21:03;96634.94;;;21.71;52.80
47366;BME280;33105;47.964;7.982;2023-07-20T08:24:04;96637.22;;;21.69;54.47
47366;BME280;33105;47.964;7.982;2023-07-20T08:27:05;96631.03;;;21.64;51.19
47366;BME280;33105;47.964;7.982;2023-07-20T08:30:07;96636.31;;;21.27;52.19
47366;BME280;33105;47.964;7.982;2023-07-20T08:33:10;96631.22;;;21.88;52.21
47366;BME280;33105;47.964;7.982;2023-07-20T08:36:12;96625.84;;;21.54;50.70
47366;BME280;33105;47.964;7.982;2023-07-20T08:39:13;96633.16;;;21.29;51.11
47366;BME280;33105;47.964;7.982;2023-07-20T08:42:14;96624.16;;;21.32;52.24
47366;BME280;33105;47.964;7.982;2023-07-20T08:45:17;96620.91;;;21.30;51.10
47366;BME280;33105;47.964;7.982;2023-07-20T08:48:20;96621.31;;;21.49;53.20
47366;BME280;33105;47.964;7.982;2023-07-20T08:51:21;96625.09;;;21.74;52.11
47366;BME280;33105;47.964;7.982;2023-07-20T08:54:27;96621.00;;;22.01;51.33
47366;BME280;33105;47.964;7.982;2023-07-20T08:57:33;96615.53;;;21.54;48.81
47366;BME280;33105;47.964;7.982;2023-07-20T09:00:35;96627.69;;;22.00;49.68
47366;BME280;33105;47.964;7.982;2023-07-20T09:03:38;96623.66;;;22.18;50.06
47366;BME280;33105;47.964;7.982;2023-07-20T09:06:40;96637.25;;;21.90;47.68
47366;BME280;33105;47.964;7.982;2023-07-20T09:09:41;96624.00;;;21.87;47.89
47366;BME280;33105;47.964;7.982;2023-07-20T09:12:45;96611.84;;;22.00;47.51
47366;BME280;33105;47.964;7.982;2023-07-20T09:15:48;96621.94;;;22.47;47.28
47366;BME280;33105;47.964;7.982;2023-07-20T09:18:54;96619.88;;;22.02;48.41
47366;BME280;33105;47.964;7.982;2023-07-20T09:21:58;96622.97;;;22.21;49.99
47366;BME280;33105;47.964;7.982;2023-07-20T09:25:00;96620.66;;;22.02;47.98
47366;BME280;33105;47.964;7.982;2023-07-20T09:28:02;96618.22;;;22.01;47.14
47366;BME280;33105;47.964;7.982;2023-07-20T09:31:16;96607.69;;;22.06;47.75
47366;BME280;33105;47.964;7.982;2023-07-20T09:34:19;96612.25;;;22.11;47.93
47366;BME280;33105;47.964;7.982;2023-07-20T09:37:21;96611.56;;;22.14;46.48
47366;BME280;33105;47.964;7.982;2023-07-20T09:40:24;96605.63;;;21.74;46.67
47366;BME280;33105;47.964;7.982;2023-07-20T09:43:28;96613.59;;;22.26;47.00
47366;BME280;33105;47.964;7.982;2023-07-20T09:46:48;96599.59;;;22.67;47.57
47366;BME280;33105;47.964;7.982;2023-07-20T09:49:49;96592.88;;;22.68;46.64
47366;BME280;33105;47.964;7.982;2023-07-20T09:52:52;96592.50;;;22.58;45.75
47366;BME280;33105;47.964;7.982;2023-07-20T09:55:54;96590.66;;;22.08;46.53
47366;BME280;33105;47.964;7.982;2023-07-20T09:58:56;96594.19;;;21.76;47.48
47366;BME280;33105;47.964;7.982;2023-07-20T10:01:58;96586.06;;;22.12;46.55
47366;BME280;33105;47.964;7.982;2023-07-20T10:05:03;96585.22;;;22.12;46.15
47366;BME280;33105;47.964;7.982;2023-07-20T10:08:15;96576.38;;;22.51;47.70
47366;BME280;33105;47.964;7.982;2023-07-20T10:14:57;96571.28;;;23.47;47.51
47366;BME280;33105;47.964;7.982;2023-07-20T10:22:19;96554.44;;;23.56;44.16
47366;BME280;33105;47.964;7.982;2023-07-20T10:25:24;96560.47;;;23.33;44.90
47366;BME280;33105;47.964;7.982;2023-07-20T10:29:14;96553.84;;;23.14;42.37
47366;BME280;33105;47.964;7.982;2023-07-20T10:36:11;96550.59;;;23.48;44.57
47366;BME280;33105;47.964;7.982;2023-07-20T10:42:33;96548.16;;;22.86;45.40
47366;BME280;33105;47.964;7.982;2023-07-20T10:45:40;96542.13;;;23.08;44.17
47366;BME280;33105;47.964;7.982;2023-07-20T10:49:01;96549.56;;;23.40;43.61
47366;BME280;33105;47.964;7.982;2023-07-20T10:52:10;96539.44;;;23.72;42.21
47366;BME280;33105;47.964;7.982;2023-07-20T10:55:31;96544.09;;;23.56;42.36
47366;BME280;33105;47.964;7.982;2023-07-20T11:03:49;96525.78;;;23.83;42.42
47366;BME280;33105;47.964;7.982;2023-07-20T11:07:37;96524.41;;;24.17;41.74
47366;BME280;33105;47.964;7.982;2023-07-20T11:11:26;96526.75;;;24.15;42.72
47366;BME280;33105;47.964;7.982;2023-07-20T11:14:55;96529.56;;;24.03;40.35
47366;BME280;33105;47.964;7.982;2023-07-20T11:18:18;96515.38;;;24.36;40.34
47366;BME280;33105;47.964;7.982;2023-07-20T11:21:22;96514.47;;;24.32;40.72
47366;BME280;33105;47.964;7.982;2023-07-20T11:28:30;96499.41;;;24.80;44.82
47366;BME280;33105;47.964;7.982;2023-07-20T11:31:35;96500.91;;;24.62;38.92
47366;BME280;33105;47.964;7.982;2023-07-20T11:38:26;96498.28;;;24.37;40.79
47366;BME280;33105;47.964;7.982;2023-07-20T11:42:08;96492.13;;;24.32;39.34
47366;BME280;33105;47.964;7.982;2023-07-20T11:48:47;96485.31;;;24.17;37.92
47366;BME280;33105;47.964;7.982;2023-07-20T11:51:52;96488.28;;;24.36;37.77
47366;BME280;33105;47.964;7.982;2023-07-20T11:55:38;96488.44;;;24.00;39.52
47366;BME280;33105;47.964;7.982;2023-07-20T11:58:58;96476.19;;;24.32;38.64
47366;BME280;33105;47.964;7.982;2023-07-20T12:02:02;96475.22;;;24.56;37.88
47366;BME280;33105;47.964;7.982;2023-07-20T12:06:14;96473.84;;;25.29;40.04
47366;BME280;33105;47.964;7.982;2023-07-20T12:09:42;96465.06;;;24.80;37.09
47366;BME280;33105;47.964;7.982;2023-07-20T12:13:38;96471.97;;;24.54;38.76
47366;BME280;33105;47.964;7.982;2023-07-20T12:21:47;96461.25;;;24.40;38.52
47366;BME280;33105;47.964;7.982;2023-07-20T12:25:52;96456.22;;;24.62;38.54
47366;BME280;33105;47.964;7.982;2023-07-20T12:29:43;96450.28;;;24.63;36.93
47366;BME280;33105;47.964;7.982;2023-07-20T12:33:01;96455.47;;;24.05;38.05
47366;BME280;33105;47.964;7.982;2023-07-20T12:36:04;96450.09;;;24.40;38.45
47366;BME280;33105;47.964;7.982;2023-07-20T12:43:42;96442.16;;;24.42;42.19
47366;BME280;33105;47.964;7.982;2023-07-20T12:50:50;96426.22;;;24.90;37.27
47366;BME280;33105;47.964;7.982;2023-07-20T12:53:52;96422.00;;;24.96;38.09
47366;BME280;33105;47.964;7.982;2023-07-20T12:56:56;96413.22;;;24.82;36.96
47366;BME280;33105;47.964;7.982;2023-07-20T13:06:03;96413.50;;;24.77;37.78
47366;BME280;33105;47.964;7.982;2023-07-20T13:13:54;96409.28;;;24.67;37.01
47366;BME280;33105;47.964;7.982;2023-07-20T13:17:15;96401.19;;;24.47;37.22
47366;BME280;33105;47.964;7.982;2023-07-20T13:21:32;96405.91;;;24.93;36.77
47366;BME280;33105;47.964;7.982;2023-07-20T13:25:25;96405.13;;;24.93;37.72
47366;BME280;33105;47.964;7.982;2023-07-20T13:37:57;96385.69;;;25.16;36.88
47366;BME280;33105;47.964;7.982;2023-07-20T13:41:34;96386.88;;;25.15;36.24
47366;BME280;33105;47.964;7.982;2023-07-20T13:44:36;96384.16;;;25.18;37.82
47366;BME280;33105;47.964;7.982;2023-07-20T13:47:46;96387.50;;;25.24;37.82
47366;BME280;33105;47.964;7.982;2023-07-20T13:50:57;96389.22;;;25.13;35.78
47366;BME280;33105;47.964;7.982;2023-07-20T13:59:09;96389.75;;;25.18;34.88
47366;BME280;33105;47.964;7.982;2023-07-20T14:02:27;96381.44;;;25.22;35.27
47366;BME280;33105;47.964;7.982;2023-07-20T14:06:02;96379.13;;;25.43;36.09
47366;BME280;33105;47.964;7.982;2023-07-20T14:09:22;96373.63;;;25.12;36.37
47366;BME280;33105;47.964;7.982;2023-07-20T14:12:26;96372.56;;;25.35;37.27
47366;BME280;33105;47.964;7.982;2023-07-20T14:15:27;96368.22;;;25.38;35.26
47366;BME280;33105;47.964;7.982;2023-07-20T14:18:39;96365.69;;;25.14;34.56
47366;BME280;33105;47.964;7.982;2023-07-20T14:34:08;96354.59;;;25.56;41.96
47366;BME280;33105;47.964;7.982;2023-07-20T14:37:58;96344.09;;;25.68;37.99
47366;BME280;33105;47.964;7.982;2023-07-20T14:41:01;96339.44;;;25.76;38.32
47366;BME280;33105;47.964;7.982;2023-07-20T14:44:41;96332.94;;;25.53;36.45
47366;BME280;33105;47.964;7.982;2023-07-20T14:47:54;96342.59;;;25.36;38.52
47366;BME280;33105;47.964;7.982;2023-07-20T14:51:00;96333.03;;;25.18;39.25
47366;BME280;33105;47.964;7.982;2023-07-20T14:54:02;96329.78;;;25.54;38.72
47366;BME280;33105;47.964;7.982;2023-07-20T15:06:32;96328.97;;;24.80;38.87
47366;BME280;33105;47.964;7.982;2023-07-20T15:14:15;96331.41;;;25.36;35.98
47366;BME280;33105;47.964;7.982;2023-07-20T15:17:43;96324.78;;;25.25;38.05
47366;BME280;33105;47.964;7.982;2023-07-20T15:20:55;96318.66;;;25.58;40.22
47366;BME280;33105;47.964;7.982;2023-07-20T15:23:57;96319.41;;;25.74;40.56
47366;BME280;33105;47.964;7.982;2023-07-20T15:27:21;96309.97;;;26.05;35.25
47366;BME280;33105;47.964;7.982;2023-07-20T15:30:38;96305.31;;;25.90;36.61
47366;BME280;33105;47.964;7.982;2023-07-20T15:35:00;96292.69;;;26.22;36.72
47366;BME280;33105;47.964;7.982;2023-07-20T15:42:47;96297.84;;;25.55;36.59
47366;BME280;33105;47.964;7.982;2023-07-20T15:50:50;96290.63;;;25.54;38.35
47366;BME280;33105;47.964;7.982;2023-07-20T15:55:00;96281.47;;;25.76;37.50
47366;BME280;33105;47.964;7.982;2023-07-20T15:58:27;96279.00;;;25.33;38.32
47366;BME280;33105;47.964;7.982;2023-07-20T16:01:29;96281.78;;;24.94;37.19
47366;BME280;33105;47.964;7.982;2023-07-20T16:04:32;96276.69;;;24.96;37.15
47366;BME280;33105;47.964;7.982;2023-07-20T16:07:40;96265.66;;;24.88;36.68
47366;BME280;33105;47.964;7.982;2023-07-20T16:11:14;96275.75;;;24.92;36.93
47366;BME280;33105;47.964;7.982;2023-07-20T16:24:36;96262.06;;;24.68;40.43
47366;BME280;33105;47.964;7.982;2023-07-20T16:28:00;96267.28;;;24.69;37.27
47366;BME280;33105;47.964;7.982;2023-07-20T16:32:03;96269.72;;;24.71;38.94
47366;BME280;33105;47.964;7.982;2023-07-20T16:37:00;96271.88;;;24.62;38.08
47366;BME280;33105;47.964;7.982;2023-07-20T16:41:19;96266.53;;;24.37;38.49
47366;BME280;33105;47.964;7.982;2023-07-20T16:53:11;96258.38;;;24.99;36.90
47366;BME280;33105;47.964;7.982;2023-07-20T16:56:22;96260.34;;;24.63;37.81
47366;BME280;33105;47.964;7.982;2023-07-20T16:59:32;96257.06;;;24.42;38.35
47366;BME280;33105;47.964;7.982;2023-07-20T17:02:34;96261.31;;;24.36;38.25
47366;BME280;33105;47.964;7.982;2023-07-20T17:10:13;96258.59;;;24.24;39.02
47366;BME280;33105;47.964;7.982;2023-07-20T17:17:27;96260.22;;;23.78;40.48
47366;BME280;33105;47.964;7.982;2023-07-20T17:21:16;96261.38;;;23.61;40.14
47366;BME280;33105;47.964;7.982;2023-07-20T17:24:42;96259.25;;;23.42;39.36
47366;BME280;33105;47.964;7.982;2023-07-20T17:27:43;96259.97;;;23.39;40.29
47366;BME280;33105;47.964;7.982;2023-07-20T17:34:22;96254.09;;;23.56;41.22
47366;BME280;33105;47.964;7.982;2023-07-20T17:37:36;96251.91;;;23.50;40.25
47366;BME280;33105;47.964;7.982;2023-07-20T17:41:20;96252.69;;;23.34;39.91
47366;BME280;33105;47.964;7.982;2023-07-20T17:44:15;96242.09;;;23.40;39.90
47366;BME280;33105;47.964;7.982;2023-07-20T17:47:26;96247.50;;;23.49;40.30
47366;BME280;33105;47.964;7.982;2023-07-20T17:50:44;96258.16;;;23.31;40.18
47366;BME280;33105;47.964;7.982;2023-07-20T17:54:03;96246.59;;;23.45;40.55
47366;BME280;33105;47.964;7.982;2023-07-20T17:57:20;96252.31;;;23.36;40.34
47366;BME280;33105;47.964;7.982;2023-07-20T18:00:31;96241.72;;;23.41;41.17
47366;BME280;33105;47.964;7.982;2023-07-20T18:03:53;96244.88;;;23.40;41.52
47366;BME280;33105;47.964;7.982;2023-07-20T18:07:06;96244.19;;;23.15;41.57
47366;BME280;33105;47.964;7.982;2023-07-20T18:10:11;96249.75;;;22.87;40.91
47366;BME280;33105;47.964;7.982;2023-07-20T18:13:12;96256.91;;;23.00;43.16
47366;BME280;33105;47.964;7.982;2023-07-20T18:16:14;96252.81;;;22.70;42.46
47366;BME280;33105;47.964;7.982;2023-07-20T18:19:16;96259.19;;;22.70;41.78
47366;BME280;33105;47.964;7.982;2023-07-20T18:22:18;96256.84;;;22.72;41.95
47366;BME280;33105;47.964;7.982;2023-07-20T18:25:20;96247.22;;;22.70;42.07
47366;BME280;33105;47.964;7.982;2023-07-20T18:28:37;96256.28;;;22.79;42.12
47366;BME280;33105;47.964;7.982;2023-07-20T18:31:56;96256.28;;;22.79;42.36
47366;BME280;33105;47.964;7.982;2023-07-20T18:34:57;96245.72;;;22.72;43.81
47366;BME280;33105;47.964;7.982;2023-07-20T18:37:59;96255.38;;;22.63;44.93
47366;BME280;33105;47.964;7.982;2023-07-20T18:41:16;96249.09;;;22.54;45.76
47366;BME280;33105;47.964;7.982;2023-07-20T18:44:40;96255.19;;;22.44;48.64
47366;BME280;33105;47.964;7.982;2023-07-20T18:49:01;96252.53;;;22.23;48.90
47366;BME280;33105;47.964;7.982;2023-07-20T18:52:28;96254.25;;;22.03;49.37
47366;BME280;33105;47.964;7.982;2023-07-20T18:55:33;96264.34;;;21.95;48.58
47366;BME280;33105;47.964;7.982;2023-07-20T18:58:34;96261.41;;;21.80;49.96
47366;BME280;33105;47.964;7.982;2023-07-20T19:01:39;96273.34;;;21.68;50.23
47366;BME280;33105;47.964;7.982;2023-07-20T19:04:43;96266.25;;;21.58;49.73
47366;BME280;33105;47.964;7.982;2023-07-20T19:07:44;96260.09;;;21.41;50.76
47366;BME280;33105;47.964;7.982;2023-07-20T19:10:46;96263.19;;;21.39;49.65
47366;BME280;33105;47.964;7.982;2023-07-20T19:13:47;96261.72;;;21.54;48.56
47366;BME280;33105;47.964;7.982;2023-07-20T19:16:48;96262.03;;;21.28;50.30
47366;BME280;33105;47.964;7.982;2023-07-20T19:19:50;96272.66;;;21.26;49.34
47366;BME280;33105;47.964;7.982;2023-07-20T19:22:51;96278.56;;;21.24;49.40